createdAt,value
2018-01-15T00:01:23.505Z,72.35
2018-01-15T00:03:51.846Z,72.39
2018-01-15T00:06:20.165Z,72.46
2018-01-15T00:08:48.505Z,72.45
2018-01-15T00:11:16.837Z,72.47
2018-01-15T00:13:45.181Z,72.65
2018-01-15T00:16:13.501Z,72.52
2018-01-15T00:18:41.831Z,72.54
2018-01-15T00:21:10.179Z,72.21
2018-01-15T00:23:38.493Z,72.30
2018-01-15T00:26:06.848Z,72.13
2018-01-15T00:28:35.175Z,72.33
2018-01-15T00:31:03.529Z,72.08
2018-01-15T00:33:31.857Z,72.43
2018-01-15T00:36:00.221Z,72.06
2018-01-15T00:38:28.550Z,71.80
2018-01-15T00:40:56.894Z,72.33
2018-01-15T00:43:25.213Z,72.29
2018-01-15T00:45:53.549Z,72.11
2018-01-15T00:48:21.873Z,72.18
2018-01-15T00:50:50.217Z,71.93
2018-01-15T00:53:18.533Z,71.94
2018-01-15T00:55:46.874Z,71.67
2018-01-15T00:58:15.181Z,71.97
2018-01-15T01:00:43.513Z,72.38
2018-01-15T01:03:11.846Z,72.42
2018-01-15T01:05:40.181Z,72.33
2018-01-15T01:08:08.502Z,72.43
2018-01-15T01:10:36.837Z,72.68
2018-01-15T01:13:05.153Z,72.98
2018-01-15T01:15:33.493Z,72.66
2018-01-15T01:18:01.816Z,72.56
2018-01-15T01:20:30.202Z,72.50
2018-01-15T01:22:58.558Z,72.33
2018-01-15T01:25:27.026Z,72.52
2018-01-15T01:27:55.333Z,73.00
2018-01-15T01:30:23.694Z,72.93
2018-01-15T01:32:52.009Z,73.34
2018-01-15T01:35:20.341Z,72.77
2018-01-15T01:37:48.665Z,73.08
2018-01-15T01:40:17.010Z,73.28
2018-01-15T01:42:45.330Z,73.18
2018-01-15T01:45:13.669Z,73.30
2018-01-15T01:47:41.989Z,73.46
2018-01-15T01:50:10.329Z,73.72
2018-01-15T01:52:38.653Z,73.84
2018-01-15T01:55:06.994Z,73.99
2018-01-15T01:57:35.314Z,74.41
2018-01-15T02:00:03.681Z,74.19
2018-01-15T02:02:31.989Z,74.30
2018-01-15T02:05:00.346Z,73.90
2018-01-15T02:07:28.658Z,73.94
2018-01-15T02:09:57.001Z,73.67
2018-01-15T02:12:25.333Z,73.64
2018-01-15T02:14:53.852Z,73.72
2018-01-15T02:17:22.172Z,73.82
2018-01-15T02:19:50.497Z,73.76
2018-01-15T02:22:18.828Z,74.21
2018-01-15T02:24:47.149Z,74.48
2018-01-15T02:27:15.495Z,74.45
2018-01-15T02:29:43.805Z,74.38
2018-01-15T02:32:12.156Z,74.73
2018-01-15T02:34:40.478Z,74.98
2018-01-15T02:37:08.808Z,74.94
2018-01-15T02:39:37.129Z,74.42
2018-01-15T02:42:05.475Z,74.47
2018-01-15T02:44:33.802Z,74.76
2018-01-15T02:47:02.139Z,74.87
2018-01-15T02:49:30.457Z,75.19
2018-01-15T02:51:58.817Z,75.45
2018-01-15T02:54:27.137Z,75.31
2018-01-15T02:56:55.486Z,75.31
2018-01-15T02:59:23.805Z,75.69
2018-01-15T03:01:52.145Z,75.76
2018-01-15T03:04:20.457Z,75.74
2018-01-15T03:06:48.801Z,75.84
2018-01-15T03:09:17.120Z,75.96
2018-01-15T03:11:45.465Z,76.25
2018-01-15T03:14:13.810Z,76.13
2018-01-15T03:16:42.150Z,75.83
2018-01-15T03:19:10.474Z,76.02
2018-01-15T03:21:38.813Z,76.23
2018-01-15T03:24:07.128Z,76.33
2018-01-15T03:26:35.476Z,76.35
2018-01-15T03:29:03.799Z,76.42
2018-01-15T03:31:32.179Z,76.45
2018-01-15T03:34:00.481Z,76.28
2018-01-15T03:36:28.821Z,76.85
2018-01-15T03:38:57.142Z,76.90
2018-01-15T03:41:25.489Z,76.93
2018-01-15T03:43:53.805Z,77.26
2018-01-15T03:46:22.149Z,77.13
2018-01-15T03:48:50.469Z,77.23
2018-01-15T03:51:18.807Z,77.22
2018-01-15T03:53:47.158Z,77.06
2018-01-15T03:56:15.496Z,77.23
2018-01-15T03:58:43.814Z,77.21
2018-01-15T04:01:12.153Z,77.34
2018-01-15T04:03:40.517Z,77.57
2018-01-15T04:06:08.819Z,77.11
2018-01-15T04:08:37.143Z,77.40
2018-01-15T04:11:05.481Z,77.73
2018-01-15T04:13:33.801Z,77.81
2018-01-15T04:16:02.154Z,78.08
2018-01-15T04:18:30.475Z,77.95
2018-01-15T04:20:58.814Z,78.05
2018-01-15T04:23:27.152Z,78.28
2018-01-15T04:25:55.477Z,78.43
2018-01-15T04:28:23.814Z,77.92
2018-01-15T04:30:52.134Z,78.12
2018-01-15T04:33:20.484Z,78.18
2018-01-15T04:35:48.802Z,78.28
2018-01-15T04:38:17.142Z,78.43
2018-01-15T04:40:45.456Z,78.69
2018-01-15T04:43:13.802Z,78.87
2018-01-15T04:45:42.126Z,78.67
2018-01-15T04:48:10.465Z,78.62
2018-01-15T04:50:38.788Z,78.92
2018-01-15T04:53:07.130Z,78.89
2018-01-15T04:55:35.450Z,79.09
2018-01-15T04:58:03.806Z,79.07
2018-01-15T05:00:32.141Z,79.17
2018-01-15T05:03:00.536Z,79.05
2018-01-15T05:05:29.718Z,78.76
2018-01-15T05:07:58.057Z,78.62
2018-01-15T05:10:26.381Z,78.52
2018-01-15T05:12:54.749Z,78.61
2018-01-15T05:15:23.065Z,78.57
2018-01-15T05:17:51.413Z,78.47
2018-01-15T05:20:19.746Z,78.50
2018-01-15T05:22:48.087Z,78.82
2018-01-15T05:25:16.410Z,78.63
2018-01-15T05:27:44.761Z,78.74
2018-01-15T05:30:13.081Z,78.69
2018-01-15T05:32:41.425Z,78.78
2018-01-15T05:35:09.748Z,78.58
2018-01-15T05:37:38.098Z,78.62
2018-01-15T05:40:06.429Z,78.58
2018-01-15T05:42:34.769Z,78.72
2018-01-15T05:45:03.099Z,78.59
2018-01-15T05:47:31.441Z,78.48
2018-01-15T05:49:59.773Z,78.73
2018-01-15T05:52:28.117Z,79.19
2018-01-15T05:54:56.458Z,79.03
2018-01-15T05:57:24.809Z,79.25
2018-01-15T05:59:53.137Z,78.84
2018-01-15T06:02:21.481Z,78.80
2018-01-15T06:04:55.597Z,79.17
2018-01-15T06:07:24.015Z,78.83
2018-01-15T06:09:52.347Z,78.83
2018-01-15T06:12:20.694Z,78.72
2018-01-15T06:14:49.022Z,78.97
2018-01-15T06:17:17.702Z,78.83
2018-01-15T06:19:46.034Z,78.63
2018-01-15T06:22:14.386Z,78.48
2018-01-15T06:24:42.714Z,78.30
2018-01-15T06:27:11.041Z,78.28
2018-01-15T06:29:39.390Z,78.16
2018-01-15T06:32:07.722Z,78.37
2018-01-15T06:34:36.098Z,78.57
2018-01-15T06:37:04.438Z,78.39
2018-01-15T06:39:33.360Z,78.67
2018-01-15T06:42:01.681Z,78.72
2018-01-15T06:44:30.026Z,79.22
2018-01-15T06:46:58.377Z,79.10
2018-01-15T06:49:26.725Z,79.05
2018-01-15T06:51:55.058Z,79.44
2018-01-15T06:54:23.407Z,79.51
2018-01-15T06:56:51.727Z,79.16
2018-01-15T06:59:21.007Z,79.16
2018-01-15T07:01:49.328Z,79.19
2018-01-15T07:04:17.682Z,79.29
2018-01-15T07:06:46.049Z,79.48
2018-01-15T07:09:14.670Z,79.71
2018-01-15T07:11:43.006Z,79.52
2018-01-15T07:14:11.366Z,79.35
2018-01-15T07:16:39.781Z,79.16
2018-01-15T07:19:08.130Z,78.70
2018-01-15T07:21:36.455Z,78.41
2018-01-15T07:24:04.801Z,78.32
2018-01-15T07:26:33.131Z,78.08
2018-01-15T07:29:01.478Z,78.15
2018-01-15T07:31:29.811Z,78.13
2018-01-15T07:33:58.157Z,77.76
2018-01-15T07:36:26.499Z,78.00
2018-01-15T07:38:55.294Z,78.29
2018-01-15T07:41:23.626Z,78.73
2018-01-15T07:43:51.978Z,78.22
2018-01-15T07:46:20.303Z,78.03
2018-01-15T07:48:48.680Z,77.79
2018-01-15T07:51:17.121Z,77.74
2018-01-15T07:53:45.494Z,77.70
2018-01-15T07:56:13.808Z,77.91
2018-01-15T07:58:42.306Z,78.18
2018-01-15T08:01:10.633Z,77.82
2018-01-15T08:03:39.089Z,77.90
2018-01-15T08:06:07.485Z,77.96
2018-01-15T08:08:35.833Z,77.84
2018-01-15T08:11:04.166Z,78.27
2018-01-15T08:13:32.518Z,78.16
2018-01-15T08:16:00.841Z,77.94
2018-01-15T08:18:29.889Z,78.24
2018-01-15T08:20:58.226Z,78.15
2018-01-15T08:23:26.573Z,78.07
2018-01-15T08:25:54.935Z,78.17
2018-01-15T08:28:23.271Z,77.80
2018-01-15T08:30:51.648Z,78.02
2018-01-15T08:33:19.972Z,78.12
2018-01-15T08:35:48.322Z,78.02
2018-01-15T08:38:17.014Z,77.93
2018-01-15T08:40:45.363Z,77.84
2018-01-15T08:43:13.695Z,77.74
2018-01-15T08:45:42.055Z,78.11
2018-01-15T08:48:10.398Z,77.98
2018-01-15T08:50:38.802Z,77.74
2018-01-15T08:53:07.126Z,77.88
2018-01-15T08:55:35.490Z,77.74
2018-01-15T08:58:04.646Z,77.69
2018-01-15T09:00:33.016Z,77.27
2018-01-15T09:03:01.352Z,77.66
2018-01-15T09:05:29.714Z,77.40
2018-01-15T09:07:58.062Z,77.09
2018-01-15T09:10:26.422Z,76.93
2018-01-15T09:12:54.896Z,76.73
2018-01-15T09:15:23.256Z,77.15
2018-01-15T09:17:51.586Z,76.88
2018-01-15T09:20:19.946Z,76.91
2018-01-15T09:22:48.286Z,76.80
2018-01-15T09:25:16.647Z,76.91
2018-01-15T09:27:44.999Z,76.57
2018-01-15T09:30:13.486Z,76.76
2018-01-15T09:32:41.864Z,76.67
2018-01-15T09:35:10.293Z,76.60
2018-01-15T09:37:38.658Z,76.81
2018-01-15T09:40:07.077Z,76.66
2018-01-15T09:42:35.444Z,76.69
2018-01-15T09:45:03.808Z,76.77
2018-01-15T09:47:32.194Z,77.26
2018-01-15T09:50:00.554Z,77.04
2018-01-15T09:52:28.881Z,77.21
2018-01-15T09:54:57.360Z,76.88
2018-01-15T09:57:25.699Z,77.07
2018-01-15T09:59:54.070Z,77.19
2018-01-15T10:02:22.386Z,77.29
2018-01-15T10:04:50.816Z,76.98
2018-01-15T10:07:19.206Z,76.90
2018-01-15T10:09:47.598Z,77.23
2018-01-15T10:12:15.935Z,76.98
2018-01-15T10:14:44.329Z,76.85
2018-01-15T10:17:12.654Z,76.90
2018-01-15T10:19:41.082Z,76.45
2018-01-15T10:22:09.490Z,76.53
2018-01-15T10:24:37.841Z,76.72
2018-01-15T10:27:06.362Z,76.74
2018-01-15T10:29:34.801Z,76.07
2018-01-15T10:32:03.137Z,76.37
2018-01-15T10:34:31.474Z,76.39
2018-01-15T10:37:00.656Z,76.07
2018-01-15T10:39:29.022Z,75.96
2018-01-15T10:41:57.400Z,75.79
2018-01-15T10:44:25.750Z,76.11
2018-01-15T10:46:54.183Z,75.99
2018-01-15T10:49:22.526Z,76.07
2018-01-15T10:51:50.923Z,75.95
2018-01-15T10:54:19.275Z,75.98
2018-01-15T10:56:47.650Z,75.91
2018-01-15T10:59:15.969Z,75.82
2018-01-15T11:01:44.406Z,76.25
2018-01-15T11:04:12.721Z,75.89
2018-01-15T11:06:41.069Z,76.31
2018-01-15T11:09:09.421Z,75.90
2018-01-15T11:11:37.838Z,75.98
2018-01-15T11:14:06.178Z,75.99
2018-01-15T11:16:35.666Z,76.27
2018-01-15T11:19:04.067Z,75.62
2018-01-15T11:21:33.402Z,75.74
2018-01-15T11:24:01.813Z,75.69
2018-01-15T11:26:30.211Z,75.58
2018-01-15T11:28:58.541Z,76.05
2018-01-15T11:31:26.894Z,75.96
2018-01-15T11:33:55.234Z,76.09
2018-01-15T11:36:23.641Z,75.79
2018-01-15T11:38:51.965Z,75.61
2018-01-15T11:41:20.318Z,75.79
2018-01-15T11:43:48.641Z,75.72
2018-01-15T11:46:16.989Z,75.37
2018-01-15T11:48:45.321Z,75.61
2018-01-15T11:51:13.681Z,75.42
2018-01-15T11:53:42.015Z,75.57
2018-01-15T11:56:10.371Z,75.11
2018-01-15T11:58:38.707Z,75.86
2018-01-15T12:01:07.053Z,75.92
2018-01-15T12:03:35.384Z,75.59
2018-01-15T12:06:03.741Z,75.80
2018-01-15T12:08:32.069Z,75.96
2018-01-15T12:11:00.434Z,75.90
2018-01-15T12:13:28.762Z,75.84
2018-01-15T12:15:57.113Z,75.61
2018-01-15T12:18:25.449Z,75.63
2018-01-15T12:20:53.807Z,75.54
2018-01-15T12:23:22.133Z,75.32
2018-01-15T12:25:50.490Z,75.09
2018-01-15T12:28:18.825Z,75.42
2018-01-15T12:30:47.220Z,75.86
2018-01-15T12:33:15.534Z,75.10
2018-01-15T12:35:43.951Z,75.57
2018-01-15T12:38:12.328Z,75.36
2018-01-15T12:40:40.643Z,74.99
2018-01-15T12:43:08.998Z,74.94
2018-01-15T12:45:37.451Z,74.89
2018-01-15T12:48:05.780Z,74.72
2018-01-15T12:50:34.179Z,75.33
2018-01-15T12:53:02.531Z,75.32
2018-01-15T12:55:30.857Z,75.00
2018-01-15T12:57:59.206Z,75.77
2018-01-15T13:00:28.518Z,75.34
2018-01-15T13:02:57.121Z,75.46
2018-01-15T13:05:37.341Z,75.38
2018-01-15T13:11:07.417Z,75.37
2018-01-15T13:13:35.765Z,75.68
2018-01-15T13:16:04.137Z,76.06
2018-01-15T13:18:32.477Z,76.08
2018-01-15T13:21:00.799Z,76.54
2018-01-15T13:23:29.169Z,76.22
2018-01-15T13:25:57.550Z,76.31
2018-01-15T13:28:25.892Z,76.16
2018-01-15T13:30:54.208Z,76.01
2018-01-15T13:33:22.635Z,76.34
2018-01-15T13:35:51.668Z,76.07
2018-01-15T13:38:20.000Z,76.50
2018-01-15T13:40:48.325Z,75.95
2018-01-15T13:43:16.697Z,76.41
2018-01-15T13:45:45.024Z,76.31
2018-01-15T13:48:13.373Z,76.76
2018-01-15T13:50:41.682Z,76.66
2018-01-15T13:53:10.016Z,77.20
2018-01-15T13:55:38.342Z,76.66
2018-01-15T13:58:06.702Z,76.71
2018-01-15T14:00:35.034Z,76.77
2018-01-15T14:03:03.381Z,76.79
2018-01-15T14:05:31.710Z,76.60
2018-01-15T14:08:00.054Z,76.71
2018-01-15T14:10:28.380Z,76.96
2018-01-15T14:12:56.721Z,76.96
2018-01-15T14:15:25.045Z,77.00
2018-01-15T14:17:53.381Z,77.16
2018-01-15T14:20:21.705Z,78.30
2018-01-15T14:22:50.041Z,76.26
2018-01-15T14:25:18.389Z,76.85
2018-01-15T14:27:46.778Z,76.71
2018-01-15T14:30:15.106Z,76.96
2018-01-15T14:32:43.559Z,76.85
2018-01-15T14:35:11.837Z,76.58
2018-01-15T14:37:40.277Z,76.53
2018-01-15T14:40:08.600Z,76.76
2018-01-15T14:42:36.941Z,76.78
2018-01-15T14:45:05.270Z,76.83
2018-01-15T14:47:33.618Z,77.57
2018-01-15T14:50:01.947Z,77.48
2018-01-15T14:52:30.394Z,77.03
2018-01-15T14:54:58.717Z,77.69
2018-01-15T14:57:27.083Z,77.75
2018-01-15T14:59:55.408Z,77.64
2018-01-15T15:02:24.411Z,77.72
2018-01-15T15:04:52.739Z,77.28
2018-01-15T15:07:21.171Z,77.69
2018-01-15T15:09:49.489Z,77.47
2018-01-15T15:12:17.834Z,77.76
2018-01-15T15:14:46.181Z,77.78
2018-01-15T15:17:14.501Z,78.03
2018-01-15T15:19:42.960Z,77.97
2018-01-15T15:22:11.289Z,77.91
2018-01-15T15:24:39.625Z,77.58
2018-01-15T15:27:07.974Z,77.84
2018-01-15T15:29:36.377Z,78.01
2018-01-15T15:32:04.705Z,77.73
2018-01-15T15:34:33.037Z,78.15
2018-01-15T15:37:01.370Z,78.41
2018-01-15T15:39:29.808Z,78.92
2018-01-15T15:41:58.744Z,79.56
2018-01-15T15:44:27.091Z,80.18
2018-01-15T15:46:55.412Z,80.37
2018-01-15T15:49:23.752Z,80.87
2018-01-15T15:51:52.093Z,81.12
2018-01-15T15:54:20.425Z,81.73
2018-01-15T15:56:48.745Z,81.79
2018-01-15T15:59:17.101Z,82.06
2018-01-15T16:01:45.444Z,81.92
2018-01-15T16:04:13.888Z,82.09
2018-01-15T16:06:42.209Z,82.29
2018-01-15T16:09:10.553Z,82.00
2018-01-15T16:11:38.917Z,82.30
2018-01-15T16:14:07.320Z,82.58
2018-01-15T16:16:35.633Z,82.75
2018-01-15T16:19:05.025Z,82.26
2018-01-15T16:21:35.383Z,82.87
2018-01-15T16:24:03.777Z,83.08
2018-01-15T16:26:32.153Z,82.92
2018-01-15T16:29:00.534Z,82.28
2018-01-15T16:31:29.621Z,82.79
2018-01-15T16:33:58.006Z,82.72
2018-01-15T16:36:26.388Z,82.48
2018-01-15T16:38:55.013Z,82.72
2018-01-15T16:41:23.329Z,82.27
2018-01-15T16:43:52.620Z,82.27
2018-01-15T16:46:20.941Z,82.27
2018-01-15T16:48:49.289Z,82.67
2018-01-15T16:51:17.633Z,82.82
2018-01-15T16:53:45.953Z,83.10
2018-01-15T16:56:14.299Z,83.24
2018-01-15T16:58:43.611Z,82.83
2018-01-15T17:01:11.997Z,83.44
2018-01-15T17:03:40.337Z,82.88
2018-01-15T17:06:08.684Z,83.55
2018-01-15T17:08:37.018Z,83.90
2018-01-15T17:11:05.377Z,83.52
2018-01-15T17:13:33.697Z,83.14
2018-01-15T17:16:02.093Z,83.10
2018-01-15T17:18:30.421Z,82.93
2018-01-15T17:20:58.761Z,82.77
2018-01-15T17:23:27.080Z,82.23
2018-01-15T17:25:55.460Z,81.83
2018-01-15T17:28:23.770Z,82.01
2018-01-15T17:30:52.213Z,81.96
2018-01-15T17:33:20.531Z,81.54
2018-01-15T17:35:49.864Z,81.04
2018-01-15T17:38:18.271Z,81.18
2018-01-15T17:40:46.647Z,80.62
2018-01-15T17:43:15.022Z,80.86
2018-01-15T17:45:43.402Z,80.57
2018-01-15T17:48:12.721Z,80.38
2018-01-15T17:50:41.057Z,80.48
2018-01-15T17:53:09.380Z,80.67
2018-01-15T17:55:37.717Z,80.54
2018-01-15T17:58:06.057Z,80.59
2018-01-15T18:00:34.385Z,80.91
2018-01-15T18:03:02.738Z,81.46
2018-01-15T18:05:31.129Z,81.09
2018-01-15T18:07:59.441Z,81.15
2018-01-15T18:10:27.777Z,80.48
2018-01-15T18:12:56.098Z,80.44
2018-01-15T18:15:24.537Z,80.07
2018-01-15T18:17:52.866Z,80.08
2018-01-15T18:20:21.193Z,80.06
2018-01-15T18:22:49.504Z,80.06
2018-01-15T18:25:17.943Z,80.03
2018-01-15T18:27:47.074Z,79.42
2018-01-15T18:30:15.513Z,79.47
2018-01-15T18:32:43.829Z,79.27
2018-01-15T18:35:12.165Z,79.67
2018-01-15T18:37:40.486Z,80.12
2018-01-15T18:40:08.841Z,80.47
2018-01-15T18:42:37.231Z,81.47
2018-01-15T18:45:05.641Z,82.05
2018-01-15T18:47:34.314Z,82.11
2018-01-15T18:50:02.637Z,82.26
2018-01-15T18:52:30.981Z,83.08
2018-01-15T18:54:59.495Z,83.86
2018-01-15T18:57:27.913Z,84.16
2018-01-15T18:59:56.989Z,84.89
2018-01-15T19:02:25.317Z,85.15
2018-01-15T19:04:53.721Z,85.85
2018-01-15T19:07:22.072Z,85.70
2018-01-15T19:09:50.480Z,85.61
2018-01-15T19:12:18.807Z,85.98
2018-01-15T19:14:47.128Z,86.18
2018-01-15T19:17:15.467Z,86.71
2018-01-15T19:19:43.898Z,87.08
2018-01-15T19:22:12.245Z,86.69
2018-01-15T19:24:40.610Z,87.24
2018-01-15T19:27:08.954Z,87.52
2018-01-15T19:29:37.262Z,87.76
2018-01-15T19:32:05.610Z,87.67
